Terminal Aerodrome Forecast
Issued by NWS Atlanta, GA

Home | Current Version | Previous Version | Text Only | Print | Product List | Glossary On
Versions: 1 2 3 4 5 6 7 8 9 10 11 12 13 14 15 16 17 18 19 20 21
000
FTUS42 KFFC 201735
TAFMCN
TAF
KMCN 201735Z 2018/2118 11005KT P6SM BKN250
     FM210700 11005KT P6SM SCT025 BKN040
     FM211500 12008KT P6SM BKN035=

USA.gov is the U.S. government's official web portal to all federal, state and local government web resources and services.